Terminal Aerodrome Forecast
Issued by NWS Twin Cities, MN

Home | Current Version | Previous Version | Text Only | Print | Product List | Glossary On
Versions: 1 2 3 4 5 6 7 8 9 10 11 12 13 14 15 16 17 18 19 20
485
FTUS43 KMPX 300520
TAFSTC
TAF
KSTC 300520Z 3006/0106 07004KT P6SM SKC
     FM300800 10004KT 4SM BR OVC005
     FM301300 08007KT P6SM SKC
     FM302100 06005KT P6SM SCT040 BKN100=

USA.gov is the U.S. government's official web portal to all federal, state and local government web resources and services.